Time;durP1;ratioP1;P1;durP2;ratioP2;P2;SDS_P1;SDS_P2;PMS_P1;PMS_P2;Temp;Humidity;BMP_temperature;BMP_pressure;BME280_temperature;BME280_humidity;BME280_pressure;Samples;Min_cycle;Max_cycle;Signal;HPM_P1;HPM_P2
2022/10/31 00:00:17;;;;;;;51.37;15.80;;;;;;;;;;737533;189;914239;-68
2022/10/31 00:02:43;;;;;;;80.03;16.33;;;;;;;;;;737096;189;921641;-68
2022/10/31 00:05:08;;;;;;;47.83;13.80;;;;;;;;;;744917;188;818110;-68
2022/10/31 00:07:34;;;;;;;33.60;12.40;;;;;;;;;;737290;189;919391;-69
2022/10/31 00:10:00;;;;;;;50.75;13.73;;;;;;;;;;736591;190;918557;-68
2022/10/31 00:12:26;;;;;;;58.70;14.77;;;;;;;;;;746722;187;918727;-68
2022/10/31 00:14:52;;;;;;;46.77;15.37;;;;;;;;;;732094;189;919875;-68
2022/10/31 00:17:18;;;;;;;28.60;12.43;;;;;;;;;;736567;187;919104;-69
2022/10/31 00:19:44;;;;;;;56.47;14.50;;;;;;;;;;740837;188;823253;-68
2022/10/31 00:22:09;;;;;;;62.73;16.10;;;;;;;;;;742843;189;919026;-68
2022/10/31 00:24:35;;;;;;;70.47;16.57;;;;;;;;;;737977;189;816735;-68
2022/10/31 00:27:01;;;;;;;47.10;13.03;;;;;;;;;;738109;190;915882;-69
2022/10/31 00:29:27;;;;;;;56.53;15.33;;;;;;;;;;739339;189;884523;-70
2022/10/31 00:31:53;;;;;;;48.13;15.70;;;;;;;;;;734426;189;933559;-69
2022/10/31 00:34:19;;;;;;;56.17;13.43;;;;;;;;;;737808;190;918532;-69
2022/10/31 00:36:44;;;;;;;82.87;15.57;;;;;;;;;;741128;189;913576;-68
2022/10/31 00:39:10;;;;;;;117.90;16.67;;;;;;;;;;735481;190;914459;-68
2022/10/31 00:41:36;;;;;;;121.00;14.70;;;;;;;;;;733253;189;918086;-69
2022/10/31 00:44:03;;;;;;;68.80;15.70;;;;;;;;;;739524;189;918054;-68
2022/10/31 00:46:28;;;;;;;92.20;13.53;;;;;;;;;;742443;187;919062;-68
2022/10/31 00:48:54;;;;;;;74.60;14.40;;;;;;;;;;738511;188;916969;-68
2022/10/31 00:51:20;;;;;;;88.40;13.17;;;;;;;;;;736500;189;919250;-68
2022/10/31 00:53:46;;;;;;;87.27;14.53;;;;;;;;;;742037;189;920749;-68
2022/10/31 00:56:12;;;;;;;77.10;13.90;;;;;;;;;;738072;189;919998;-70
2022/10/31 00:58:38;;;;;;;92.53;14.20;;;;;;;;;;735885;189;918709;-68
2022/10/31 01:01:04;;;;;;;129.90;15.33;;;;;;;;;;741211;190;917000;-69
2022/10/31 01:03:29;;;;;;;60.60;12.97;;;;;;;;;;736679;189;817246;-69
2022/10/31 01:05:55;;;;;;;52.00;12.00;;;;;;;;;;737017;189;918873;-69
2022/10/31 01:08:22;;;;;;;43.00;12.55;;;;;;;;;;745146;188;923628;-69
2022/10/31 01:10:48;;;;;;;49.97;11.50;;;;;;;;;;743150;189;817416;-69
2022/10/31 01:13:14;;;;;;;94.43;15.30;;;;;;;;;;739438;188;919109;-68
2022/10/31 01:15:39;;;;;;;95.23;15.33;;;;;;;;;;734669;189;816641;-69
2022/10/31 01:18:05;;;;;;;64.23;11.90;;;;;;;;;;743762;189;918587;-69
2022/10/31 01:20:31;;;;;;;75.63;13.60;;;;;;;;;;737083;189;919232;-68
2022/10/31 01:22:57;;;;;;;81.20;13.50;;;;;;;;;;737319;188;921097;-68
2022/10/31 01:25:23;;;;;;;58.13;12.20;;;;;;;;;;746862;187;919501;-68
2022/10/31 01:27:49;;;;;;;60.53;12.20;;;;;;;;;;737738;188;918904;-68
2022/10/31 01:30:14;;;;;;;68.00;13.23;;;;;;;;;;735999;189;918858;-68
2022/10/31 01:32:40;;;;;;;68.07;13.00;;;;;;;;;;745569;189;910192;-68
2022/10/31 01:35:06;;;;;;;101.77;17.37;;;;;;;;;;739760;189;913918;-70
2022/10/31 01:37:32;;;;;;;86.07;14.80;;;;;;;;;;737480;186;921769;-70
2022/10/31 01:39:58;;;;;;;56.83;13.37;;;;;;;;;;736734;188;917877;-69
2022/10/31 01:42:24;;;;;;;50.07;13.70;;;;;;;;;;743063;189;920014;-68
2022/10/31 01:44:50;;;;;;;62.73;13.90;;;;;;;;;;735654;189;816562;-69
2022/10/31 01:47:16;;;;;;;59.15;14.38;;;;;;;;;;735776;189;817199;-69
2022/10/31 01:49:42;;;;;;;73.57;14.47;;;;;;;;;;739943;189;816100;-68
2022/10/31 01:52:08;;;;;;;83.27;14.43;;;;;;;;;;736815;190;918467;-68
2022/10/31 01:54:34;;;;;;;86.80;15.90;;;;;;;;;;737033;190;920370;-68
2022/10/31 01:57:00;;;;;;;73.70;12.63;;;;;;;;;;743229;188;816607;-68
2022/10/31 01:59:26;;;;;;;57.07;11.97;;;;;;;;;;738125;189;816802;-68
2022/10/31 02:01:51;;;;;;;82.00;14.20;;;;;;;;;;735765;189;848594;-67
2022/10/31 02:04:17;;;;;;;85.70;12.70;;;;;;;;;;736742;189;824568;-67
2022/10/31 02:06:45;;;;;;;51.67;10.67;;;;;;;;;;740479;189;918259;-68
2022/10/31 02:09:11;;;;;;;64.90;12.30;;;;;;;;;;738660;189;919332;-67
2022/10/31 02:11:37;;;;;;;128.27;14.47;;;;;;;;;;738556;189;919486;-68
2022/10/31 02:14:02;;;;;;;81.93;13.53;;;;;;;;;;742862;189;901340;-67
2022/10/31 02:16:28;;;;;;;71.77;12.83;;;;;;;;;;735829;189;919307;-67
2022/10/31 02:18:54;;;;;;;71.90;13.30;;;;;;;;;;734845;189;919231;-70
2022/10/31 02:21:26;;;;;;;30.20;10.93;;;;;;;;;;743618;187;874058;-69
2022/10/31 02:23:52;;;;;;;56.47;11.93;;;;;;;;;;747641;189;919329;-68
2022/10/31 02:26:39;;;;;;;88.67;13.77;;;;;;;;;;742418;186;915858;-68
2022/10/31 02:29:06;;;;;;;26.50;10.30;;;;;;;;;;738303;189;920715;-68
2022/10/31 02:31:36;;;;;;;59.87;11.10;;;;;;;;;;734882;189;918285;-68
2022/10/31 02:34:05;;;;;;;73.83;13.10;;;;;;;;;;736829;189;917955;-68
2022/10/31 02:36:33;;;;;;;51.53;10.47;;;;;;;;;;746968;187;919140;-68
2022/10/31 02:39:17;;;;;;;83.80;12.20;;;;;;;;;;738274;189;918734;-68
2022/10/31 02:41:44;;;;;;;48.73;11.20;;;;;;;;;;738812;189;818037;-68
2022/10/31 02:44:13;;;;;;;54.97;12.40;;;;;;;;;;736528;190;908549;-67
2022/10/31 02:46:41;;;;;;;28.10;10.83;;;;;;;;;;737010;188;934859;-68
2022/10/31 02:49:07;;;;;;;58.50;10.50;;;;;;;;;;743579;187;926731;-68
2022/10/31 02:51:33;;;;;;;38.57;9.33;;;;;;;;;;739937;188;841944;-67
2022/10/31 02:53:59;;;;;;;67.50;10.77;;;;;;;;;;738569;188;917670;-68
2022/10/31 02:56:25;;;;;;;52.73;9.70;;;;;;;;;;742057;189;816859;-67
2022/10/31 02:58:51;;;;;;;32.63;10.10;;;;;;;;;;735829;190;919215;-68
2022/10/31 03:01:22;;;;;;;52.77;10.97;;;;;;;;;;731334;190;919227;-68
2022/10/31 03:03:48;;;;;;;45.73;10.77;;;;;;;;;;737690;190;919290;-68
2022/10/31 03:06:14;;;;;;;49.60;10.10;;;;;;;;;;739600;190;918695;-68
2022/10/31 03:08:40;;;;;;;43.27;8.60;;;;;;;;;;734905;189;921587;-68
2022/10/31 03:11:05;;;;;;;30.87;9.37;;;;;;;;;;735172;189;918679;-68
2022/10/31 03:13:34;;;;;;;52.23;10.50;;;;;;;;;;741586;190;820185;-68
2022/10/31 03:16:05;;;;;;;73.57;11.67;;;;;;;;;;738950;189;807706;-68
2022/10/31 03:18:33;;;;;;;77.30;11.30;;;;;;;;;;735140;190;919100;-68
2022/10/31 03:21:01;;;;;;;44.47;9.38;;;;;;;;;;734135;190;918001;-68
2022/10/31 03:23:27;;;;;;;44.10;9.53;;;;;;;;;;740516;190;917262;-68
2022/10/31 03:25:53;;;;;;;31.60;9.43;;;;;;;;;;737614;189;919019;-68
2022/10/31 03:28:19;;;;;;;52.53;10.67;;;;;;;;;;737233;189;818777;-68
2022/10/31 03:30:45;;;;;;;71.60;11.63;;;;;;;;;;740326;189;918556;-69
2022/10/31 03:33:11;;;;;;;59.77;11.80;;;;;;;;;;737411;189;919019;-68
2022/10/31 03:35:37;;;;;;;52.00;11.30;;;;;;;;;;735937;189;917575;-68
2022/10/31 03:38:02;;;;;;;56.17;10.13;;;;;;;;;;736739;189;870711;-68
2022/10/31 03:40:28;;;;;;;24.10;10.40;;;;;;;;;;740082;189;919213;-68
2022/10/31 03:42:55;;;;;;;31.27;10.87;;;;;;;;;;737238;189;918343;-68
2022/10/31 03:45:22;;;;;;;37.13;9.03;;;;;;;;;;737883;189;917913;-68
2022/10/31 03:47:47;;;;;;;47.03;10.80;;;;;;;;;;744061;189;906838;-68
2022/10/31 03:50:13;;;;;;;44.73;11.13;;;;;;;;;;735663;189;918792;-67
2022/10/31 03:52:41;;;;;;;33.60;9.60;;;;;;;;;;735860;189;913967;-68
2022/10/31 03:55:08;;;;;;;28.57;10.43;;;;;;;;;;741209;189;817247;-68
2022/10/31 03:57:35;;;;;;;37.57;8.90;;;;;;;;;;745908;188;816915;-67
2022/10/31 04:00:03;;;;;;;47.90;12.30;;;;;;;;;;738739;189;919588;-67
2022/10/31 04:02:29;;;;;;;57.40;10.18;;;;;;;;;;735858;189;919147;-68
2022/10/31 04:04:54;;;;;;;75.70;12.07;;;;;;;;;;736285;189;919503;-68
2022/10/31 04:07:20;;;;;;;68.80;13.63;;;;;;;;;;735027;190;924786;-68
2022/10/31 04:09:46;;;;;;;48.63;11.60;;;;;;;;;;736433;187;818329;-68
2022/10/31 04:12:14;;;;;;;72.17;12.43;;;;;;;;;;743269;187;817995;-73
2022/10/31 04:14:38;;;;;;;36.23;8.80;;;;;;;;;;735729;189;918255;-68
2022/10/31 04:17:04;;;;;;;45.00;11.60;;;;;;;;;;739758;188;919323;-68
2022/10/31 04:19:30;;;;;;;46.37;10.40;;;;;;;;;;737583;189;919311;-68
2022/10/31 04:21:55;;;;;;;31.30;9.47;;;;;;;;;;732894;190;917937;-68
2022/10/31 04:24:21;;;;;;;36.77;10.33;;;;;;;;;;734550;189;917577;-70
2022/10/31 04:26:47;;;;;;;50.40;9.30;;;;;;;;;;735845;190;864120;-68
2022/10/31 04:29:13;;;;;;;55.23;9.83;;;;;;;;;;741662;189;856567;-68
2022/10/31 04:31:39;;;;;;;57.17;10.67;;;;;;;;;;735410;189;918596;-68
2022/10/31 04:34:05;;;;;;;100.57;12.10;;;;;;;;;;736214;190;920334;-68
2022/10/31 04:36:30;;;;;;;104.13;12.17;;;;;;;;;;740231;189;919187;-68
2022/10/31 04:38:56;;;;;;;30.27;8.90;;;;;;;;;;735967;189;919423;-68
2022/10/31 04:41:22;;;;;;;34.25;9.15;;;;;;;;;;738324;189;916095;-67
2022/10/31 04:43:48;;;;;;;41.17;9.02;;;;;;;;;;737993;188;918762;-68
2022/10/31 04:46:14;;;;;;;24.10;8.27;;;;;;;;;;733862;190;919718;-68
2022/10/31 04:48:40;;;;;;;36.50;9.63;;;;;;;;;;736290;189;919498;-67
2022/10/31 04:51:06;;;;;;;18.55;8.32;;;;;;;;;;737937;188;912205;-68
2022/10/31 04:53:32;;;;;;;44.03;9.40;;;;;;;;;;744858;189;919616;-68
2022/10/31 04:55:58;;;;;;;38.43;9.47;;;;;;;;;;733576;189;919388;-68
2022/10/31 04:58:23;;;;;;;44.90;10.73;;;;;;;;;;737735;189;817751;-67
2022/10/31 05:00:49;;;;;;;55.42;10.95;;;;;;;;;;740359;189;916277;-69
2022/10/31 05:03:15;;;;;;;52.23;11.60;;;;;;;;;;735593;189;816196;-69
2022/10/31 05:05:41;;;;;;;63.60;10.73;;;;;;;;;;738819;188;850077;-68
2022/10/31 05:08:07;;;;;;;35.50;8.43;;;;;;;;;;738940;189;930467;-68
2022/10/31 05:10:33;;;;;;;31.77;7.73;;;;;;;;;;735598;189;919090;-68
2022/10/31 05:12:58;;;;;;;42.37;9.10;;;;;;;;;;736386;189;925835;-68
2022/10/31 05:15:24;;;;;;;45.77;9.70;;;;;;;;;;736389;189;920972;-68
2022/10/31 05:17:50;;;;;;;47.00;9.07;;;;;;;;;;738974;189;914294;-68
2022/10/31 05:20:16;;;;;;;45.57;8.97;;;;;;;;;;733158;189;919317;-67
2022/10/31 05:22:43;;;;;;;64.67;9.77;;;;;;;;;;734160;189;912693;-67
2022/10/31 05:25:09;;;;;;;45.17;8.10;;;;;;;;;;740168;189;918925;-68
2022/10/31 05:27:35;;;;;;;48.50;8.60;;;;;;;;;;734947;189;919503;-67
2022/10/31 05:30:00;;;;;;;61.77;9.90;;;;;;;;;;737811;189;815197;-67
2022/10/31 05:32:26;;;;;;;43.05;6.60;;;;;;;;;;740821;189;918067;-68
2022/10/31 05:34:52;;;;;;;28.63;7.33;;;;;;;;;;736662;189;830880;-68
2022/10/31 05:37:18;;;;;;;42.70;7.30;;;;;;;;;;736514;189;921042;-67
2022/10/31 05:39:44;;;;;;;34.07;8.20;;;;;;;;;;738248;189;625459;-67
2022/10/31 05:42:10;;;;;;;63.67;7.73;;;;;;;;;;745817;189;730730;-68
2022/10/31 05:44:35;;;;;;;46.17;8.80;;;;;;;;;;736848;189;919117;-69
2022/10/31 05:47:01;;;;;;;62.97;7.93;;;;;;;;;;736796;189;935180;-68
2022/10/31 05:49:27;;;;;;;37.43;7.90;;;;;;;;;;743236;189;617237;-68
2022/10/31 05:51:53;;;;;;;83.00;9.80;;;;;;;;;;739240;189;634485;-67
2022/10/31 05:54:19;;;;;;;21.60;6.90;;;;;;;;;;743094;188;627841;-68
2022/10/31 05:56:45;;;;;;;67.20;8.73;;;;;;;;;;743294;189;817017;-69
2022/10/31 05:59:11;;;;;;;56.43;8.13;;;;;;;;;;736001;189;920097;-67
2022/10/31 06:01:37;;;;;;;57.70;8.00;;;;;;;;;;736089;189;917170;-68
2022/10/31 06:04:03;;;;;;;44.93;7.43;;;;;;;;;;738835;188;919018;-68
2022/10/31 06:06:29;;;;;;;51.80;8.40;;;;;;;;;;744272;186;878548;-68
2022/10/31 06:08:54;;;;;;;45.07;8.00;;;;;;;;;;737857;187;939700;-68
2022/10/31 06:11:20;;;;;;;65.53;7.93;;;;;;;;;;736625;189;918547;-68
2022/10/31 06:13:46;;;;;;;65.97;8.73;;;;;;;;;;741115;189;918647;-68
2022/10/31 06:16:12;;;;;;;66.90;8.80;;;;;;;;;;736881;189;825196;-67
2022/10/31 06:18:38;;;;;;;60.73;8.97;;;;;;;;;;735963;189;918380;-68
2022/10/31 06:21:04;;;;;;;78.40;8.50;;;;;;;;;;740947;189;815906;-68
2022/10/31 06:23:30;;;;;;;59.33;8.03;;;;;;;;;;739634;187;920394;-67
2022/10/31 06:25:55;;;;;;;45.17;6.80;;;;;;;;;;736669;188;920862;-68
2022/10/31 06:28:21;;;;;;;32.13;9.43;;;;;;;;;;741398;189;917667;-67
2022/10/31 06:30:47;;;;;;;50.60;6.90;;;;;;;;;;736136;189;915904;-69
2022/10/31 06:33:13;;;;;;;35.40;7.27;;;;;;;;;;736207;189;814562;-69
2022/10/31 06:35:39;;;;;;;39.40;8.97;;;;;;;;;;735347;189;914431;-68
2022/10/31 06:38:05;;;;;;;50.23;7.80;;;;;;;;;;740624;189;921269;-67
2022/10/31 06:40:30;;;;;;;42.75;8.27;;;;;;;;;;732556;189;920117;-68
2022/10/31 06:42:56;;;;;;;30.87;9.07;;;;;;;;;;733614;189;918496;-67
2022/10/31 06:45:22;;;;;;;30.10;7.57;;;;;;;;;;743900;189;1020817;-67
2022/10/31 06:47:50;;;;;;;49.30;8.10;;;;;;;;;;737091;189;921748;-68
2022/10/31 06:50:16;;;;;;;39.33;7.57;;;;;;;;;;734757;189;923962;-67
2022/10/31 06:52:41;;;;;;;42.13;8.00;;;;;;;;;;741026;189;919385;-67
2022/10/31 06:55:07;;;;;;;28.93;7.67;;;;;;;;;;734886;189;921089;-67
2022/10/31 06:57:33;;;;;;;52.20;8.70;;;;;;;;;;735785;189;914041;-68
2022/10/31 06:59:59;;;;;;;34.70;7.63;;;;;;;;;;734572;189;916431;-67
2022/10/31 07:02:25;;;;;;;49.17;9.93;;;;;;;;;;741666;189;816254;-68
2022/10/31 07:04:51;;;;;;;28.23;7.77;;;;;;;;;;732480;189;1023094;-67
2022/10/31 07:07:17;;;;;;;30.93;7.80;;;;;;;;;;736786;189;919535;-67
2022/10/31 07:09:42;;;;;;;27.23;7.23;;;;;;;;;;742521;189;918900;-68
2022/10/31 07:12:08;;;;;;;24.67;7.37;;;;;;;;;;738067;189;918955;-67
2022/10/31 07:14:34;;;;;;;16.43;7.27;;;;;;;;;;739304;188;915987;-68
2022/10/31 07:17:00;;;;;;;15.50;6.80;;;;;;;;;;741048;189;913326;-67
2022/10/31 07:19:26;;;;;;;32.97;8.97;;;;;;;;;;735722;189;916296;-67
2022/10/31 07:21:52;;;;;;;29.77;7.67;;;;;;;;;;736589;189;917963;-68
2022/10/31 07:24:18;;;;;;;51.43;7.83;;;;;;;;;;736235;189;918801;-67
2022/10/31 07:26:45;;;;;;;21.40;7.30;;;;;;;;;;739643;189;919013;-68
2022/10/31 07:29:10;;;;;;;71.53;10.80;;;;;;;;;;738710;189;807245;-69
2022/10/31 07:31:36;;;;;;;53.10;9.10;;;;;;;;;;736840;189;854948;-69
2022/10/31 07:34:02;;;;;;;47.27;9.57;;;;;;;;;;741113;189;919871;-68
2022/10/31 07:36:27;;;;;;;60.60;9.20;;;;;;;;;;736387;189;816174;-69
2022/10/31 07:38:53;;;;;;;52.80;9.23;;;;;;;;;;736998;189;898438;-69
2022/10/31 07:41:19;;;;;;;43.17;8.43;;;;;;;;;;741394;189;913779;-67
2022/10/31 07:43:45;;;;;;;42.37;8.80;;;;;;;;;;737317;189;917724;-67
2022/10/31 07:46:11;;;;;;;66.07;10.53;;;;;;;;;;742578;188;892859;-67
2022/10/31 07:48:38;;;;;;;51.07;8.50;;;;;;;;;;744296;189;816833;-68
2022/10/31 07:51:04;;;;;;;182.53;16.47;;;;;;;;;;747021;188;626602;-67
2022/10/31 07:53:30;;;;;;;147.17;10.70;;;;;;;;;;740654;188;629477;-69
2022/10/31 07:55:56;;;;;;;49.47;9.43;;;;;;;;;;740805;189;917796;-68
2022/10/31 07:58:22;;;;;;;69.10;7.80;;;;;;;;;;741901;189;750117;-69
2022/10/31 08:00:48;;;;;;;51.67;8.37;;;;;;;;;;735483;189;919019;-68
2022/10/31 08:03:13;;;;;;;25.15;6.53;;;;;;;;;;735900;189;918701;-69
2022/10/31 08:05:40;;;;;;;17.57;6.53;;;;;;;;;;740668;189;919975;-68
2022/10/31 08:08:05;;;;;;;50.60;7.93;;;;;;;;;;740144;188;920197;-68
2022/10/31 08:10:31;;;;;;;36.08;7.75;;;;;;;;;;736666;189;817631;-68
2022/10/31 08:12:58;;;;;;;35.43;7.13;;;;;;;;;;735554;189;920213;-69
2022/10/31 08:15:23;;;;;;;30.30;7.73;;;;;;;;;;732844;191;918024;-67
2022/10/31 08:17:49;;;;;;;42.03;6.93;;;;;;;;;;734774;188;891858;-68
2022/10/31 08:20:15;;;;;;;39.27;7.80;;;;;;;;;;740731;189;817727;-68
2022/10/31 08:22:42;;;;;;;66.23;10.30;;;;;;;;;;744297;189;623982;-68
2022/10/31 08:25:08;;;;;;;48.50;8.47;;;;;;;;;;740672;189;619486;-68
2022/10/31 08:27:34;;;;;;;25.40;7.60;;;;;;;;;;743386;187;862337;-69
2022/10/31 08:30:00;;;;;;;28.33;7.67;;;;;;;;;;749479;189;624048;-68
2022/10/31 08:32:25;;;;;;;26.57;6.30;;;;;;;;;;734786;188;915708;-68
2022/10/31 08:34:51;;;;;;;10.70;5.37;;;;;;;;;;738280;189;816580;-68
2022/10/31 08:37:19;;;;;;;93.53;9.33;;;;;;;;;;735458;190;816331;-69
2022/10/31 08:39:43;;;;;;;46.93;7.20;;;;;;;;;;733779;190;928390;-68
2022/10/31 08:42:09;;;;;;;20.37;6.17;;;;;;;;;;728518;190;863561;-68
2022/10/31 08:44:35;;;;;;;39.50;6.73;;;;;;;;;;743525;189;818228;-68
2022/10/31 08:47:00;;;;;;;42.80;5.93;;;;;;;;;;742365;189;914272;-69
2022/10/31 08:49:26;;;;;;;28.23;6.67;;;;;;;;;;739065;188;913987;-67
2022/10/31 08:51:52;;;;;;;52.27;7.00;;;;;;;;;;737224;189;918811;-68
2022/10/31 08:54:18;;;;;;;35.63;6.20;;;;;;;;;;741132;189;918601;-68
2022/10/31 08:56:44;;;;;;;27.07;5.87;;;;;;;;;;730112;190;917499;-69
2022/10/31 08:59:10;;;;;;;33.93;7.80;;;;;;;;;;737031;189;793715;-68
2022/10/31 09:01:35;;;;;;;15.63;5.00;;;;;;;;;;743169;189;629812;-68
2022/10/31 09:04:01;;;;;;;33.37;6.97;;;;;;;;;;739737;190;625761;-67
2022/10/31 09:06:27;;;;;;;32.73;6.00;;;;;;;;;;742305;188;917471;-68
2022/10/31 09:08:53;;;;;;;51.03;7.70;;;;;;;;;;740371;189;916508;-68
2022/10/31 09:11:19;;;;;;;41.77;6.90;;;;;;;;;;742751;189;795538;-67
2022/10/31 09:13:45;;;;;;;10.60;5.90;;;;;;;;;;734015;189;918732;-67
2022/10/31 09:16:10;;;;;;;20.77;6.10;;;;;;;;;;734540;189;915190;-68
2022/10/31 09:18:36;;;;;;;17.27;5.60;;;;;;;;;;740004;189;917526;-68
2022/10/31 09:21:02;;;;;;;30.53;5.87;;;;;;;;;;735452;189;917868;-68
2022/10/31 09:23:28;;;;;;;11.43;4.47;;;;;;;;;;736973;189;909634;-68
2022/10/31 09:25:54;;;;;;;8.43;5.30;;;;;;;;;;740101;190;913774;-68
2022/10/31 09:28:20;;;;;;;6.40;5.20;;;;;;;;;;738689;187;898403;-68
2022/10/31 09:30:46;;;;;;;10.93;5.40;;;;;;;;;;737826;187;904987;-69
2022/10/31 09:33:12;;;;;;;8.63;5.70;;;;;;;;;;737096;189;905084;-68
2022/10/31 09:35:38;;;;;;;17.80;4.83;;;;;;;;;;752542;184;855898;-68
2022/10/31 09:38:04;;;;;;;8.50;5.67;;;;;;;;;;738083;188;918078;-68
2022/10/31 09:40:33;;;;;;;18.43;5.77;;;;;;;;;;736619;188;909737;-68
2022/10/31 09:43:02;;;;;;;9.67;5.57;;;;;;;;;;742215;189;815581;-68
2022/10/31 09:45:32;;;;;;;9.13;6.67;;;;;;;;;;739206;188;816949;-68
2022/10/31 09:48:03;;;;;;;8.17;5.67;;;;;;;;;;735112;189;918914;-69
2022/10/31 09:50:34;;;;;;;9.03;5.47;;;;;;;;;;736035;189;910073;-68
2022/10/31 09:53:01;;;;;;;8.27;5.80;;;;;;;;;;736811;189;918075;-68
2022/10/31 09:55:31;;;;;;;10.93;5.50;;;;;;;;;;744844;188;814916;-69
2022/10/31 09:57:57;;;;;;;13.07;6.50;;;;;;;;;;736707;188;914940;-69
2022/10/31 10:00:23;;;;;;;7.80;5.77;;;;;;;;;;736803;189;920768;-70
2022/10/31 10:02:51;;;;;;;8.70;6.33;;;;;;;;;;745397;188;818301;-68
2022/10/31 10:05:17;;;;;;;10.13;6.33;;;;;;;;;;734615;188;918736;-70
2022/10/31 10:07:45;;;;;;;22.48;6.80;;;;;;;;;;734537;189;921866;-68
2022/10/31 10:10:15;;;;;;;10.67;5.60;;;;;;;;;;738564;188;917597;-68
2022/10/31 10:12:42;;;;;;;12.30;5.97;;;;;;;;;;741483;189;816307;-68
2022/10/31 10:15:14;;;;;;;7.20;5.70;;;;;;;;;;735100;189;919916;-68
2022/10/31 10:17:40;;;;;;;9.30;5.40;;;;;;;;;;733643;189;1029748;-68
2022/10/31 10:20:12;;;;;;;7.80;6.27;;;;;;;;;;736530;189;917383;-69
2022/10/31 10:22:42;;;;;;;9.80;5.30;;;;;;;;;;743965;189;919936;-68
2022/10/31 10:25:14;;;;;;;13.03;7.07;;;;;;;;;;739004;188;916573;-69
2022/10/31 10:27:52;;;;;;;18.97;7.30;;;;;;;;;;740390;188;918772;-68
2022/10/31 10:30:18;;;;;;;10.17;6.40;;;;;;;;;;738511;187;903401;-68
2022/10/31 10:32:59;;;;;;;20.87;7.17;;;;;;;;;;737574;189;816495;-69
2022/10/31 10:35:32;;;;;;;14.10;6.00;;;;;;;;;;736491;189;918452;-68
2022/10/31 10:38:13;;;;;;;13.20;7.27;;;;;;;;;;743307;187;823691;-68
2022/10/31 10:40:39;;;;;;;16.40;7.60;;;;;;;;;;742627;186;811574;-69
2022/10/31 10:43:22;;;;;;;28.93;6.90;;;;;;;;;;741043;188;896239;-68
2022/10/31 10:48:21;;;;;;;14.27;7.43;;;;;;;;;;738393;188;946372;-68
2022/10/31 10:50:47;;;;;;;8.93;5.40;;;;;;;;;;738506;189;918933;-69
2022/10/31 10:53:21;;;;;;;12.57;7.25;;;;;;;;;;741667;189;919211;-69
2022/10/31 10:55:43;;;;;;;11.70;7.37;;;;;;;;;;736651;189;923235;-69
2022/10/31 10:58:09;;;;;;;12.07;8.53;;;;;;;;;;736933;189;918175;-69
2022/10/31 11:00:35;;;;;;;9.93;7.93;;;;;;;;;;740663;189;918930;-71
2022/10/31 11:03:00;;;;;;;14.87;9.10;;;;;;;;;;741356;188;918127;-69
2022/10/31 11:05:28;;;;;;;12.07;8.27;;;;;;;;;;737971;186;816153;-69
2022/10/31 11:07:54;;;;;;;12.67;7.90;;;;;;;;;;736585;189;919794;-69
2022/10/31 11:10:20;;;;;;;14.27;7.47;;;;;;;;;;741286;189;918830;-68
2022/10/31 11:12:46;;;;;;;15.30;8.53;;;;;;;;;;735183;189;918584;-69
2022/10/31 11:15:20;;;;;;;15.17;9.87;;;;;;;;;;734237;189;916753;-69
2022/10/31 11:17:46;;;;;;;12.33;8.50;;;;;;;;;;735675;189;922304;-69
2022/10/31 11:20:30;;;;;;;11.80;9.40;;;;;;;;;;742236;187;915511;-69
2022/10/31 11:22:54;;;;;;;11.43;8.33;;;;;;;;;;747588;188;917508;-69
2022/10/31 11:25:21;;;;;;;22.30;11.00;;;;;;;;;;739286;188;872251;-69
2022/10/31 11:27:47;;;;;;;13.20;9.47;;;;;;;;;;738153;188;918845;-69
2022/10/31 11:30:13;;;;;;;21.83;10.40;;;;;;;;;;740936;189;918914;-69
2022/10/31 11:32:39;;;;;;;18.53;10.43;;;;;;;;;;737044;187;917310;-69
2022/10/31 11:35:05;;;;;;;14.53;8.87;;;;;;;;;;735167;188;919222;-69
2022/10/31 11:37:31;;;;;;;13.60;9.10;;;;;;;;;;739207;189;918139;-69
2022/10/31 11:39:57;;;;;;;17.93;9.47;;;;;;;;;;736453;189;937424;-69
2022/10/31 11:42:32;;;;;;;19.93;8.60;;;;;;;;;;739671;187;916332;-70
2022/10/31 11:44:58;;;;;;;16.63;9.27;;;;;;;;;;734433;189;914894;-69
2022/10/31 11:47:24;;;;;;;13.93;9.23;;;;;;;;;;740510;189;922900;-69
2022/10/31 11:49:50;;;;;;;14.83;10.60;;;;;;;;;;732700;189;1019701;-69
2022/10/31 11:52:17;;;;;;;19.75;11.55;;;;;;;;;;737523;189;919243;-69
2022/10/31 11:54:45;;;;;;;17.87;11.98;;;;;;;;;;742846;188;815672;-69
2022/10/31 11:57:17;;;;;;;21.13;12.30;;;;;;;;;;745595;187;811674;-69
2022/10/31 11:59:42;;;;;;;19.43;9.37;;;;;;;;;;741166;188;913416;-68
2022/10/31 12:02:14;;;;;;;19.27;10.23;;;;;;;;;;737652;189;920382;-69
2022/10/31 12:04:42;;;;;;;23.23;10.67;;;;;;;;;;738761;189;919005;-69
2022/10/31 12:07:07;;;;;;;34.70;11.97;;;;;;;;;;737598;189;914650;-68
2022/10/31 12:09:33;;;;;;;21.10;10.50;;;;;;;;;;737688;189;950384;-69
2022/10/31 12:12:05;;;;;;;31.27;11.50;;;;;;;;;;734076;189;918617;-69
2022/10/31 12:14:48;;;;;;;24.90;12.10;;;;;;;;;;739440;189;847605;-68
2022/10/31 12:17:15;;;;;;;44.73;12.00;;;;;;;;;;747305;189;626649;-69
2022/10/31 12:19:42;;;;;;;19.43;9.37;;;;;;;;;;748768;186;918064;-69
2022/10/31 12:22:13;;;;;;;30.63;9.57;;;;;;;;;;744319;189;627045;-69
2022/10/31 12:24:45;;;;;;;38.10;9.60;;;;;;;;;;736292;189;919340;-68
2022/10/31 12:27:13;;;;;;;19.10;11.80;;;;;;;;;;736623;189;919471;-69
2022/10/31 12:29:40;;;;;;;23.63;11.10;;;;;;;;;;741962;186;918107;-69
2022/10/31 12:32:12;;;;;;;33.67;11.50;;;;;;;;;;738601;188;891014;-69
2022/10/31 12:34:44;;;;;;;28.73;11.93;;;;;;;;;;737213;189;919088;-68
2022/10/31 12:37:29;;;;;;;18.10;11.33;;;;;;;;;;734515;189;818814;-68
2022/10/31 12:40:00;;;;;;;18.23;11.83;;;;;;;;;;736534;187;915125;-68
2022/10/31 12:42:42;;;;;;;51.00;13.60;;;;;;;;;;745607;188;916049;-69
2022/10/31 12:45:09;;;;;;;27.93;12.40;;;;;;;;;;736211;188;917743;-68
2022/10/31 12:47:39;;;;;;;31.20;13.30;;;;;;;;;;740267;187;919439;-69
2022/10/31 12:50:10;;;;;;;30.60;11.30;;;;;;;;;;735454;189;917281;-68
2022/10/31 12:52:36;;;;;;;28.00;12.00;;;;;;;;;;736892;189;925115;-69
2022/10/31 12:55:03;;;;;;;25.60;13.60;;;;;;;;;;744393;188;715348;-69
2022/10/31 12:57:33;;;;;;;41.23;13.93;;;;;;;;;;737459;189;918081;-69
2022/10/31 13:00:15;;;;;;;35.15;12.40;;;;;;;;;;738973;189;919258;-69
2022/10/31 13:02:43;;;;;;;28.90;12.27;;;;;;;;;;734871;189;920121;-68
2022/10/31 13:05:24;;;;;;;55.90;13.93;;;;;;;;;;739907;187;921990;-68
2022/10/31 13:07:56;;;;;;;22.23;12.18;;;;;;;;;;733812;189;925941;-69
2022/10/31 13:10:23;;;;;;;31.63;12.40;;;;;;;;;;742457;186;921168;-70
2022/10/31 13:12:50;;;;;;;47.67;15.60;;;;;;;;;;740974;188;920972;-70
2022/10/31 13:15:17;;;;;;;31.93;11.40;;;;;;;;;;740750;185;920517;-68
2022/10/31 13:17:42;;;;;;;69.40;15.83;;;;;;;;;;738340;189;917255;-69
2022/10/31 13:20:14;;;;;;;25.93;13.60;;;;;;;;;;741809;188;919703;-69
2022/10/31 13:22:40;;;;;;;26.07;13.33;;;;;;;;;;737312;189;815432;-69
2022/10/31 13:25:11;;;;;;;29.07;14.50;;;;;;;;;;736373;189;918718;-69
2022/10/31 13:27:43;;;;;;;64.40;15.43;;;;;;;;;;739918;189;843605;-69
2022/10/31 13:30:12;;;;;;;32.87;15.27;;;;;;;;;;745520;189;817204;-69
2022/10/31 13:32:38;;;;;;;46.07;15.80;;;;;;;;;;738817;189;918216;-69
2022/10/31 13:35:04;;;;;;;56.73;16.37;;;;;;;;;;737045;189;826787;-69
2022/10/31 13:37:32;;;;;;;35.13;14.43;;;;;;;;;;735988;189;917102;-69
2022/10/31 13:40:18;;;;;;;38.67;16.03;;;;;;;;;;750067;185;917266;-69
2022/10/31 13:42:50;;;;;;;39.57;17.93;;;;;;;;;;741540;188;908307;-69
2022/10/31 13:45:17;;;;;;;30.40;15.07;;;;;;;;;;736606;189;918527;-70
2022/10/31 13:47:43;;;;;;;37.07;16.37;;;;;;;;;;734023;189;918335;-69
2022/10/31 13:50:16;;;;;;;53.60;16.57;;;;;;;;;;740012;187;918607;-69
2022/10/31 13:52:41;;;;;;;68.60;17.60;;;;;;;;;;742176;188;919137;-69
2022/10/31 13:55:08;;;;;;;37.23;15.50;;;;;;;;;;737334;189;920021;-70
2022/10/31 13:57:35;;;;;;;33.80;15.90;;;;;;;;;;736323;188;919021;-69
2022/10/31 14:00:01;;;;;;;44.60;16.77;;;;;;;;;;739780;188;920327;-69
2022/10/31 14:02:27;;;;;;;61.50;19.10;;;;;;;;;;730435;191;918899;-70
2022/10/31 14:05:02;;;;;;;145.77;20.40;;;;;;;;;;737504;186;919373;-69
2022/10/31 14:07:27;;;;;;;55.97;19.20;;;;;;;;;;741091;188;917671;-69
2022/10/31 14:10:08;;;;;;;50.20;16.50;;;;;;;;;;740709;189;922968;-70
2022/10/31 14:12:39;;;;;;;50.70;19.43;;;;;;;;;;741959;188;925863;-70